sensor_id;sensor_type;location;lat;lon;timestamp;P1;durP1;ratioP1;P2;durP2;ratioP2
15944;SDS011;30172;48.832;8.732;2023-02-28T00:02:24;4.83;;;3.40;;
15944;SDS011;30172;48.832;8.732;2023-02-28T00:04:50;2.83;;;2.33;;
15944;SDS011;30172;48.832;8.732;2023-02-28T00:07:18;3.00;;;2.30;;
15944;SDS011;30172;48.832;8.732;2023-02-28T00:09:43;5.40;;;2.47;;
15944;SDS011;30172;48.832;8.732;2023-02-28T00:12:08;4.40;;;2.30;;
15944;SDS011;30172;48.832;8.732;2023-02-28T00:14:35;4.77;;;2.70;;
15944;SDS011;30172;48.832;8.732;2023-02-28T00:17:01;5.03;;;3.23;;
15944;SDS011;30172;48.832;8.732;2023-02-28T00:19:26;4.30;;;2.83;;
15944;SDS011;30172;48.832;8.732;2023-02-28T00:21:51;3.93;;;2.70;;
15944;SDS011;30172;48.832;8.732;2023-02-28T00:24:17;4.13;;;3.10;;
15944;SDS011;30172;48.832;8.732;2023-02-28T00:26:42;5.57;;;2.97;;
15944;SDS011;30172;48.832;8.732;2023-02-28T00:29:07;3.97;;;3.20;;
15944;SDS011;30172;48.832;8.732;2023-02-28T00:31:33;5.70;;;3.13;;
15944;SDS011;30172;48.832;8.732;2023-02-28T00:33:58;3.87;;;2.93;;
15944;SDS011;30172;48.832;8.732;2023-02-28T00:36:23;3.53;;;2.97;;
15944;SDS011;30172;48.832;8.732;2023-02-28T00:38:48;3.50;;;3.00;;
15944;SDS011;30172;48.832;8.732;2023-02-28T00:41:14;3.20;;;2.90;;
15944;SDS011;30172;48.832;8.732;2023-02-28T00:43:39;3.93;;;3.23;;
15944;SDS011;30172;48.832;8.732;2023-02-28T00:46:05;5.07;;;3.40;;
15944;SDS011;30172;48.832;8.732;2023-02-28T00:48:31;4.53;;;3.10;;
15944;SDS011;30172;48.832;8.732;2023-02-28T00:50:56;4.87;;;3.13;;
15944;SDS011;30172;48.832;8.732;2023-02-28T00:53:22;5.07;;;3.50;;
15944;SDS011;30172;48.832;8.732;2023-02-28T00:55:48;3.70;;;2.97;;
15944;SDS011;30172;48.832;8.732;2023-02-28T00:58:13;4.67;;;3.37;;
15944;SDS011;30172;48.832;8.732;2023-02-28T01:00:39;4.27;;;3.23;;
15944;SDS011;30172;48.832;8.732;2023-02-28T01:03:04;4.33;;;3.27;;
15944;SDS011;30172;48.832;8.732;2023-02-28T01:05:29;7.77;;;3.60;;
15944;SDS011;30172;48.832;8.732;2023-02-28T01:07:55;4.77;;;3.70;;
15944;SDS011;30172;48.832;8.732;2023-02-28T01:10:20;7.03;;;4.40;;
15944;SDS011;30172;48.832;8.732;2023-02-28T01:12:45;6.83;;;4.00;;
15944;SDS011;30172;48.832;8.732;2023-02-28T01:15:11;7.43;;;4.07;;
15944;SDS011;30172;48.832;8.732;2023-02-28T01:17:36;5.40;;;3.97;;
15944;SDS011;30172;48.832;8.732;2023-02-28T01:20:01;7.43;;;3.80;;
15944;SDS011;30172;48.832;8.732;2023-02-28T01:22:27;6.60;;;3.53;;
15944;SDS011;30172;48.832;8.732;2023-02-28T01:24:53;4.70;;;3.70;;
15944;SDS011;30172;48.832;8.732;2023-02-28T01:27:18;6.53;;;4.27;;
15944;SDS011;30172;48.832;8.732;2023-02-28T01:29:44;5.50;;;3.77;;
15944;SDS011;30172;48.832;8.732;2023-02-28T01:32:09;8.27;;;4.47;;
15944;SDS011;30172;48.832;8.732;2023-02-28T01:34:34;6.77;;;4.10;;
15944;SDS011;30172;48.832;8.732;2023-02-28T01:37:00;5.53;;;4.27;;
15944;SDS011;30172;48.832;8.732;2023-02-28T01:39:26;5.83;;;4.13;;
15944;SDS011;30172;48.832;8.732;2023-02-28T01:41:51;6.10;;;4.70;;
15944;SDS011;30172;48.832;8.732;2023-02-28T01:47:20;8.17;;;5.30;;
15944;SDS011;30172;48.832;8.732;2023-02-28T01:49:46;7.00;;;4.43;;
15944;SDS011;30172;48.832;8.732;2023-02-28T01:52:11;7.00;;;4.67;;
15944;SDS011;30172;48.832;8.732;2023-02-28T01:54:43;5.70;;;4.90;;
15944;SDS011;30172;48.832;8.732;2023-02-28T01:57:13;7.13;;;4.83;;
15944;SDS011;30172;48.832;8.732;2023-02-28T01:59:43;8.37;;;4.90;;
15944;SDS011;30172;48.832;8.732;2023-02-28T02:02:16;6.13;;;4.73;;
15944;SDS011;30172;48.832;8.732;2023-02-28T02:04:50;7.07;;;4.47;;
15944;SDS011;30172;48.832;8.732;2023-02-28T02:07:26;7.53;;;4.80;;
15944;SDS011;30172;48.832;8.732;2023-02-28T02:16:23;7.47;;;4.97;;
15944;SDS011;30172;48.832;8.732;2023-02-28T02:18:57;7.50;;;4.50;;
15944;SDS011;30172;48.832;8.732;2023-02-28T02:38:49;8.47;;;5.90;;
15944;SDS011;30172;48.832;8.732;2023-02-28T02:41:39;7.40;;;4.87;;
15944;SDS011;30172;48.832;8.732;2023-02-28T02:44:13;7.23;;;5.10;;
15944;SDS011;30172;48.832;8.732;2023-02-28T02:46:44;6.50;;;4.93;;
15944;SDS011;30172;48.832;8.732;2023-02-28T02:49:15;6.83;;;5.50;;
15944;SDS011;30172;48.832;8.732;2023-02-28T02:51:44;6.50;;;5.33;;
15944;SDS011;30172;48.832;8.732;2023-02-28T02:54:13;9.67;;;5.53;;
15944;SDS011;30172;48.832;8.732;2023-02-28T02:56:44;7.50;;;5.53;;
15944;SDS011;30172;48.832;8.732;2023-02-28T02:59:12;9.87;;;5.67;;
15944;SDS011;30172;48.832;8.732;2023-02-28T03:01:39;8.23;;;5.93;;
15944;SDS011;30172;48.832;8.732;2023-02-28T03:04:11;6.87;;;5.37;;
15944;SDS011;30172;48.832;8.732;2023-02-28T03:06:38;6.83;;;5.63;;
15944;SDS011;30172;48.832;8.732;2023-02-28T03:09:03;7.30;;;5.77;;
15944;SDS011;30172;48.832;8.732;2023-02-28T03:11:29;7.77;;;5.70;;
15944;SDS011;30172;48.832;8.732;2023-02-28T03:13:59;7.33;;;5.27;;
15944;SDS011;30172;48.832;8.732;2023-02-28T03:22:08;8.00;;;5.57;;
15944;SDS011;30172;48.832;8.732;2023-02-28T03:30:41;8.17;;;5.47;;
15944;SDS011;30172;48.832;8.732;2023-02-28T03:33:21;9.50;;;6.00;;
15944;SDS011;30172;48.832;8.732;2023-02-28T03:35:59;9.13;;;5.90;;
15944;SDS011;30172;48.832;8.732;2023-02-28T03:38:35;8.90;;;5.50;;
15944;SDS011;30172;48.832;8.732;2023-02-28T03:41:06;6.00;;;5.07;;
15944;SDS011;30172;48.832;8.732;2023-02-28T03:43:37;8.30;;;5.40;;
15944;SDS011;30172;48.832;8.732;2023-02-28T03:46:05;7.63;;;5.80;;
15944;SDS011;30172;48.832;8.732;2023-02-28T03:49:16;8.30;;;6.20;;
15944;SDS011;30172;48.832;8.732;2023-02-28T03:51:31;6.50;;;5.70;;
15944;SDS011;30172;48.832;8.732;2023-02-28T03:53:58;10.60;;;6.17;;
15944;SDS011;30172;48.832;8.732;2023-02-28T03:56:29;7.33;;;5.87;;
15944;SDS011;30172;48.832;8.732;2023-02-28T04:01:30;7.70;;;6.00;;
15944;SDS011;30172;48.832;8.732;2023-02-28T04:03:58;7.10;;;5.50;;
15944;SDS011;30172;48.832;8.732;2023-02-28T04:06:24;12.00;;;7.87;;
15944;SDS011;30172;48.832;8.732;2023-02-28T04:08:49;12.33;;;8.13;;
15944;SDS011;30172;48.832;8.732;2023-02-28T04:11:20;9.40;;;6.50;;
15944;SDS011;30172;48.832;8.732;2023-02-28T04:13:47;8.90;;;6.40;;
15944;SDS011;30172;48.832;8.732;2023-02-28T04:16:13;8.27;;;6.73;;
15944;SDS011;30172;48.832;8.732;2023-02-28T04:18:39;8.27;;;6.30;;
15944;SDS011;30172;48.832;8.732;2023-02-28T04:21:05;8.47;;;6.17;;
15944;SDS011;30172;48.832;8.732;2023-02-28T04:23:31;7.57;;;5.67;;
15944;SDS011;30172;48.832;8.732;2023-02-28T04:25:56;9.10;;;6.13;;
15944;SDS011;30172;48.832;8.732;2023-02-28T04:28:21;10.10;;;7.20;;
15944;SDS011;30172;48.832;8.732;2023-02-28T04:30:47;7.87;;;6.67;;
15944;SDS011;30172;48.832;8.732;2023-02-28T04:33:12;8.10;;;6.67;;
15944;SDS011;30172;48.832;8.732;2023-02-28T04:35:37;10.67;;;6.87;;
15944;SDS011;30172;48.832;8.732;2023-02-28T04:38:03;8.93;;;6.50;;
15944;SDS011;30172;48.832;8.732;2023-02-28T04:40:28;8.73;;;6.97;;
15944;SDS011;30172;48.832;8.732;2023-02-28T04:42:53;9.67;;;7.10;;
15944;SDS011;30172;48.832;8.732;2023-02-28T04:45:19;9.80;;;6.77;;
15944;SDS011;30172;48.832;8.732;2023-02-28T04:47:44;10.27;;;7.13;;
15944;SDS011;30172;48.832;8.732;2023-02-28T04:50:09;11.13;;;6.83;;
15944;SDS011;30172;48.832;8.732;2023-02-28T04:52:35;9.20;;;6.87;;
15944;SDS011;30172;48.832;8.732;2023-02-28T04:55:00;9.40;;;7.23;;
15944;SDS011;30172;48.832;8.732;2023-02-28T04:57:26;9.97;;;6.87;;
15944;SDS011;30172;48.832;8.732;2023-02-28T04:59:51;9.73;;;7.50;;
15944;SDS011;30172;48.832;8.732;2023-02-28T05:02:17;13.53;;;9.30;;
15944;SDS011;30172;48.832;8.732;2023-02-28T05:04:42;11.23;;;6.90;;
15944;SDS011;30172;48.832;8.732;2023-02-28T05:07:07;10.20;;;7.00;;
15944;SDS011;30172;48.832;8.732;2023-02-28T05:09:33;11.47;;;6.93;;
15944;SDS011;30172;48.832;8.732;2023-02-28T05:11:58;7.63;;;6.83;;
15944;SDS011;30172;48.832;8.732;2023-02-28T05:14:23;10.40;;;7.67;;
15944;SDS011;30172;48.832;8.732;2023-02-28T05:16:49;8.67;;;6.93;;
15944;SDS011;30172;48.832;8.732;2023-02-28T05:19:14;9.40;;;6.97;;
15944;SDS011;30172;48.832;8.732;2023-02-28T05:21:40;11.50;;;7.07;;
15944;SDS011;30172;48.832;8.732;2023-02-28T05:24:07;8.97;;;6.67;;
15944;SDS011;30172;48.832;8.732;2023-02-28T05:26:35;12.13;;;7.43;;
15944;SDS011;30172;48.832;8.732;2023-02-28T05:29:01;11.27;;;7.53;;
15944;SDS011;30172;48.832;8.732;2023-02-28T05:31:26;10.83;;;7.73;;
15944;SDS011;30172;48.832;8.732;2023-02-28T05:33:52;11.17;;;7.93;;
15944;SDS011;30172;48.832;8.732;2023-02-28T05:36:17;12.57;;;7.90;;
15944;SDS011;30172;48.832;8.732;2023-02-28T05:38:45;10.93;;;7.87;;
15944;SDS011;30172;48.832;8.732;2023-02-28T05:41:12;13.27;;;7.93;;
15944;SDS011;30172;48.832;8.732;2023-02-28T05:43:37;14.40;;;8.67;;
15944;SDS011;30172;48.832;8.732;2023-02-28T05:46:03;10.27;;;7.93;;
15944;SDS011;30172;48.832;8.732;2023-02-28T05:48:36;15.97;;;8.73;;
15944;SDS011;30172;48.832;8.732;2023-02-28T05:51:02;13.03;;;9.13;;
15944;SDS011;30172;48.832;8.732;2023-02-28T05:53:29;14.13;;;8.70;;
15944;SDS011;30172;48.832;8.732;2023-02-28T05:55:54;16.90;;;10.17;;
15944;SDS011;30172;48.832;8.732;2023-02-28T05:58:20;15.07;;;9.40;;
15944;SDS011;30172;48.832;8.732;2023-02-28T06:00:46;15.10;;;9.60;;
15944;SDS011;30172;48.832;8.732;2023-02-28T06:03:11;16.33;;;10.57;;
15944;SDS011;30172;48.832;8.732;2023-02-28T06:05:37;18.83;;;11.97;;
15944;SDS011;30172;48.832;8.732;2023-02-28T06:08:03;16.97;;;10.53;;
15944;SDS011;30172;48.832;8.732;2023-02-28T06:10:29;11.87;;;8.57;;
15944;SDS011;30172;48.832;8.732;2023-02-28T06:12:54;18.37;;;10.73;;
15944;SDS011;30172;48.832;8.732;2023-02-28T06:15:19;13.50;;;10.07;;
15944;SDS011;30172;48.832;8.732;2023-02-28T06:17:45;16.00;;;9.73;;
15944;SDS011;30172;48.832;8.732;2023-02-28T06:20:12;13.20;;;8.77;;
15944;SDS011;30172;48.832;8.732;2023-02-28T06:22:40;11.90;;;8.67;;
15944;SDS011;30172;48.832;8.732;2023-02-28T06:25:05;12.97;;;9.07;;
15944;SDS011;30172;48.832;8.732;2023-02-28T06:27:31;10.80;;;9.10;;
15944;SDS011;30172;48.832;8.732;2023-02-28T06:29:57;12.93;;;8.73;;
15944;SDS011;30172;48.832;8.732;2023-02-28T06:32:23;12.47;;;8.57;;
15944;SDS011;30172;48.832;8.732;2023-02-28T06:34:48;11.90;;;8.10;;
15944;SDS011;30172;48.832;8.732;2023-02-28T06:37:15;12.60;;;8.53;;
15944;SDS011;30172;48.832;8.732;2023-02-28T06:39:40;11.63;;;7.97;;
15944;SDS011;30172;48.832;8.732;2023-02-28T06:42:05;10.50;;;7.73;;
15944;SDS011;30172;48.832;8.732;2023-02-28T06:44:31;14.87;;;7.83;;
15944;SDS011;30172;48.832;8.732;2023-02-28T06:47:00;10.57;;;8.20;;
15944;SDS011;30172;48.832;8.732;2023-02-28T06:49:28;9.30;;;7.37;;
15944;SDS011;30172;48.832;8.732;2023-02-28T06:51:54;11.70;;;8.07;;
15944;SDS011;30172;48.832;8.732;2023-02-28T06:54:19;13.13;;;8.10;;
15944;SDS011;30172;48.832;8.732;2023-02-28T06:56:45;12.67;;;8.17;;
15944;SDS011;30172;48.832;8.732;2023-02-28T06:59:10;10.40;;;7.20;;
15944;SDS011;30172;48.832;8.732;2023-02-28T07:01:35;10.83;;;7.90;;
15944;SDS011;30172;48.832;8.732;2023-02-28T07:04:01;9.23;;;7.13;;
15944;SDS011;30172;48.832;8.732;2023-02-28T07:06:26;10.27;;;7.43;;
15944;SDS011;30172;48.832;8.732;2023-02-28T07:08:52;10.93;;;7.37;;
15944;SDS011;30172;48.832;8.732;2023-02-28T07:11:18;11.73;;;7.80;;
15944;SDS011;30172;48.832;8.732;2023-02-28T07:13:44;11.43;;;7.27;;
15944;SDS011;30172;48.832;8.732;2023-02-28T07:16:11;10.43;;;7.27;;
15944;SDS011;30172;48.832;8.732;2023-02-28T07:18:37;10.73;;;7.13;;
15944;SDS011;30172;48.832;8.732;2023-02-28T07:21:07;11.37;;;8.27;;
15944;SDS011;30172;48.832;8.732;2023-02-28T07:23:33;12.17;;;8.47;;
15944;SDS011;30172;48.832;8.732;2023-02-28T07:25:59;13.63;;;8.77;;
15944;SDS011;30172;48.832;8.732;2023-02-28T07:28:25;11.30;;;7.33;;
15944;SDS011;30172;48.832;8.732;2023-02-28T07:30:50;11.80;;;7.97;;
15944;SDS011;30172;48.832;8.732;2023-02-28T07:33:15;15.90;;;9.10;;
15944;SDS011;30172;48.832;8.732;2023-02-28T07:35:41;13.63;;;9.70;;
15944;SDS011;30172;48.832;8.732;2023-02-28T07:38:06;18.17;;;16.27;;
15944;SDS011;30172;48.832;8.732;2023-02-28T07:40:35;14.77;;;10.90;;
15944;SDS011;30172;48.832;8.732;2023-02-28T07:43:00;12.37;;;8.83;;
15944;SDS011;30172;48.832;8.732;2023-02-28T07:45:26;9.73;;;7.73;;
15944;SDS011;30172;48.832;8.732;2023-02-28T07:47:53;13.43;;;8.97;;
15944;SDS011;30172;48.832;8.732;2023-02-28T07:50:20;10.10;;;7.73;;
15944;SDS011;30172;48.832;8.732;2023-02-28T07:52:45;13.80;;;8.77;;
15944;SDS011;30172;48.832;8.732;2023-02-28T07:55:10;11.57;;;8.87;;
15944;SDS011;30172;48.832;8.732;2023-02-28T07:57:36;11.97;;;8.30;;
15944;SDS011;30172;48.832;8.732;2023-02-28T08:00:03;11.70;;;8.47;;
15944;SDS011;30172;48.832;8.732;2023-02-28T08:02:30;11.77;;;7.57;;
15944;SDS011;30172;48.832;8.732;2023-02-28T08:04:55;12.47;;;7.67;;
15944;SDS011;30172;48.832;8.732;2023-02-28T08:07:21;11.63;;;7.80;;
15944;SDS011;30172;48.832;8.732;2023-02-28T08:09:46;13.20;;;8.90;;
15944;SDS011;30172;48.832;8.732;2023-02-28T08:12:11;11.17;;;8.07;;
15944;SDS011;30172;48.832;8.732;2023-02-28T08:14:37;12.00;;;8.93;;
15944;SDS011;30172;48.832;8.732;2023-02-28T08:17:03;11.33;;;8.43;;
15944;SDS011;30172;48.832;8.732;2023-02-28T08:19:28;11.77;;;8.53;;
15944;SDS011;30172;48.832;8.732;2023-02-28T08:21:54;11.50;;;8.43;;
15944;SDS011;30172;48.832;8.732;2023-02-28T08:24:20;13.53;;;8.97;;
15944;SDS011;30172;48.832;8.732;2023-02-28T08:26:45;16.63;;;10.87;;
15944;SDS011;30172;48.832;8.732;2023-02-28T08:29:10;17.83;;;9.70;;
15944;SDS011;30172;48.832;8.732;2023-02-28T08:31:35;15.40;;;9.57;;
15944;SDS011;30172;48.832;8.732;2023-02-28T08:34:11;11.37;;;8.37;;
15944;SDS011;30172;48.832;8.732;2023-02-28T08:36:37;12.60;;;8.53;;
15944;SDS011;30172;48.832;8.732;2023-02-28T08:39:03;13.20;;;9.07;;
15944;SDS011;30172;48.832;8.732;2023-02-28T08:41:30;14.83;;;8.80;;
15944;SDS011;30172;48.832;8.732;2023-02-28T08:43:55;12.63;;;8.87;;
15944;SDS011;30172;48.832;8.732;2023-02-28T08:46:21;10.87;;;8.43;;
15944;SDS011;30172;48.832;8.732;2023-02-28T08:48:46;13.83;;;9.27;;
15944;SDS011;30172;48.832;8.732;2023-02-28T08:51:13;12.40;;;9.30;;
15944;SDS011;30172;48.832;8.732;2023-02-28T08:53:43;10.83;;;8.63;;
15944;SDS011;30172;48.832;8.732;2023-02-28T08:56:10;12.57;;;8.57;;
15944;SDS011;30172;48.832;8.732;2023-02-28T08:58:37;10.70;;;7.83;;
15944;SDS011;30172;48.832;8.732;2023-02-28T09:01:09;11.50;;;8.67;;
15944;SDS011;30172;48.832;8.732;2023-02-28T09:03:36;12.33;;;8.60;;
15944;SDS011;30172;48.832;8.732;2023-02-28T09:06:02;11.20;;;8.67;;
15944;SDS011;30172;48.832;8.732;2023-02-28T09:08:28;14.60;;;9.87;;
15944;SDS011;30172;48.832;8.732;2023-02-28T09:10:55;13.20;;;8.87;;
15944;SDS011;30172;48.832;8.732;2023-02-28T09:13:22;15.40;;;9.50;;
15944;SDS011;30172;48.832;8.732;2023-02-28T09:15:48;15.73;;;8.33;;
15944;SDS011;30172;48.832;8.732;2023-02-28T09:18:14;13.77;;;9.20;;
15944;SDS011;30172;48.832;8.732;2023-02-28T09:20:40;15.30;;;10.40;;
15944;SDS011;30172;48.832;8.732;2023-02-28T09:23:06;13.83;;;9.20;;
15944;SDS011;30172;48.832;8.732;2023-02-28T09:25:32;14.67;;;10.33;;
15944;SDS011;30172;48.832;8.732;2023-02-28T09:27:58;16.23;;;10.00;;
15944;SDS011;30172;48.832;8.732;2023-02-28T09:30:23;12.83;;;9.10;;
15944;SDS011;30172;48.832;8.732;2023-02-28T09:32:48;11.87;;;9.07;;
15944;SDS011;30172;48.832;8.732;2023-02-28T09:35:17;17.00;;;10.30;;
15944;SDS011;30172;48.832;8.732;2023-02-28T09:37:43;14.50;;;10.17;;
15944;SDS011;30172;48.832;8.732;2023-02-28T09:40:09;13.27;;;9.80;;
15944;SDS011;30172;48.832;8.732;2023-02-28T09:42:35;13.30;;;9.80;;
15944;SDS011;30172;48.832;8.732;2023-02-28T09:45:02;18.80;;;11.57;;
15944;SDS011;30172;48.832;8.732;2023-02-28T09:47:39;14.27;;;9.27;;
15944;SDS011;30172;48.832;8.732;2023-02-28T09:52:51;15.93;;;10.83;;
15944;SDS011;30172;48.832;8.732;2023-02-28T09:55:19;15.33;;;10.20;;
15944;SDS011;30172;48.832;8.732;2023-02-28T09:57:47;13.70;;;8.93;;
15944;SDS011;30172;48.832;8.732;2023-02-28T10:02:59;16.50;;;9.80;;
15944;SDS011;30172;48.832;8.732;2023-02-28T10:05:41;16.83;;;10.13;;
15944;SDS011;30172;48.832;8.732;2023-02-28T10:08:14;15.73;;;10.57;;
15944;SDS011;30172;48.832;8.732;2023-02-28T10:10:42;14.37;;;9.57;;
15944;SDS011;30172;48.832;8.732;2023-02-28T10:13:20;15.43;;;8.73;;
15944;SDS011;30172;48.832;8.732;2023-02-28T10:15:51;16.93;;;9.63;;
15944;SDS011;30172;48.832;8.732;2023-02-28T10:18:21;17.30;;;10.83;;
15944;SDS011;30172;48.832;8.732;2023-02-28T10:20:49;14.73;;;9.33;;
15944;SDS011;30172;48.832;8.732;2023-02-28T10:23:23;16.77;;;10.37;;
15944;SDS011;30172;48.832;8.732;2023-02-28T10:25:55;16.70;;;10.13;;
15944;SDS011;30172;48.832;8.732;2023-02-28T10:28:24;14.83;;;10.13;;
15944;SDS011;30172;48.832;8.732;2023-02-28T10:30:50;14.97;;;9.67;;
15944;SDS011;30172;48.832;8.732;2023-02-28T10:33:29;14.23;;;9.87;;
15944;SDS011;30172;48.832;8.732;2023-02-28T10:35:56;12.27;;;9.27;;
15944;SDS011;30172;48.832;8.732;2023-02-28T10:38:26;14.50;;;10.17;;
15944;SDS011;30172;48.832;8.732;2023-02-28T10:41:03;12.30;;;9.53;;
15944;SDS011;30172;48.832;8.732;2023-02-28T10:43:39;16.70;;;10.17;;
15944;SDS011;30172;48.832;8.732;2023-02-28T10:48:36;13.97;;;10.33;;
15944;SDS011;30172;48.832;8.732;2023-02-28T10:51:03;13.67;;;10.23;;
15944;SDS011;30172;48.832;8.732;2023-02-28T10:53:35;13.60;;;9.33;;
15944;SDS011;30172;48.832;8.732;2023-02-28T10:56:04;14.07;;;9.23;;
15944;SDS011;30172;48.832;8.732;2023-02-28T11:01:23;17.67;;;10.50;;
15944;SDS011;30172;48.832;8.732;2023-02-28T11:04:19;15.00;;;9.97;;
15944;SDS011;30172;48.832;8.732;2023-02-28T11:06:48;11.37;;;9.77;;
15944;SDS011;30172;48.832;8.732;2023-02-28T11:09:35;14.83;;;10.13;;
15944;SDS011;30172;48.832;8.732;2023-02-28T11:12:04;14.33;;;10.13;;
15944;SDS011;30172;48.832;8.732;2023-02-28T11:14:32;18.57;;;10.90;;
15944;SDS011;30172;48.832;8.732;2023-02-28T11:17:11;11.80;;;9.07;;
15944;SDS011;30172;48.832;8.732;2023-02-28T11:19:39;12.93;;;9.87;;
15944;SDS011;30172;48.832;8.732;2023-02-28T11:22:09;14.63;;;10.80;;
15944;SDS011;30172;48.832;8.732;2023-02-28T11:24:42;12.23;;;9.80;;
15944;SDS011;30172;48.832;8.732;2023-02-28T11:27:26;14.67;;;9.73;;
15944;SDS011;30172;48.832;8.732;2023-02-28T11:29:51;15.47;;;10.83;;
15944;SDS011;30172;48.832;8.732;2023-02-28T11:32:21;14.60;;;9.37;;
15944;SDS011;30172;48.832;8.732;2023-02-28T11:35:10;14.17;;;9.87;;
15944;SDS011;30172;48.832;8.732;2023-02-28T11:37:42;15.97;;;10.47;;
15944;SDS011;30172;48.832;8.732;2023-02-28T11:43:30;11.27;;;8.70;;
15944;SDS011;30172;48.832;8.732;2023-02-28T11:46:11;11.27;;;9.27;;
15944;SDS011;30172;48.832;8.732;2023-02-28T11:51:39;13.23;;;9.87;;
15944;SDS011;30172;48.832;8.732;2023-02-28T11:54:18;15.37;;;10.10;;
15944;SDS011;30172;48.832;8.732;2023-02-28T12:00:12;12.97;;;9.77;;
15944;SDS011;30172;48.832;8.732;2023-02-28T12:02:55;15.27;;;10.53;;
15944;SDS011;30172;48.832;8.732;2023-02-28T12:05:29;12.40;;;10.17;;
15944;SDS011;30172;48.832;8.732;2023-02-28T12:10:57;12.37;;;10.47;;
15944;SDS011;30172;48.832;8.732;2023-02-28T12:13:25;13.43;;;10.03;;
15944;SDS011;30172;48.832;8.732;2023-02-28T12:16:00;15.80;;;11.00;;
15944;SDS011;30172;48.832;8.732;2023-02-28T12:18:33;14.70;;;10.67;;
15944;SDS011;30172;48.832;8.732;2023-02-28T12:21:13;12.97;;;10.67;;
15944;SDS011;30172;48.832;8.732;2023-02-28T12:26:44;12.77;;;8.93;;
15944;SDS011;30172;48.832;8.732;2023-02-28T12:29:15;15.20;;;9.93;;
15944;SDS011;30172;48.832;8.732;2023-02-28T12:31:55;13.63;;;9.80;;
15944;SDS011;30172;48.832;8.732;2023-02-28T12:34:44;13.13;;;9.80;;
15944;SDS011;30172;48.832;8.732;2023-02-28T12:37:14;12.70;;;10.47;;
15944;SDS011;30172;48.832;8.732;2023-02-28T12:39:47;12.10;;;9.77;;
15944;SDS011;30172;48.832;8.732;2023-02-28T12:42:17;11.20;;;9.87;;
15944;SDS011;30172;48.832;8.732;2023-02-28T12:44:49;12.07;;;9.77;;
15944;SDS011;30172;48.832;8.732;2023-02-28T12:47:17;15.80;;;11.03;;
15944;SDS011;30172;48.832;8.732;2023-02-28T12:49:50;11.90;;;9.87;;
15944;SDS011;30172;48.832;8.732;2023-02-28T12:52:24;12.13;;;8.93;;
15944;SDS011;30172;48.832;8.732;2023-02-28T12:54:55;14.43;;;10.17;;
15944;SDS011;30172;48.832;8.732;2023-02-28T13:00:15;12.47;;;10.17;;
15944;SDS011;30172;48.832;8.732;2023-02-28T13:05:49;12.67;;;10.07;;
15944;SDS011;30172;48.832;8.732;2023-02-28T13:10:53;14.57;;;10.47;;
15944;SDS011;30172;48.832;8.732;2023-02-28T13:13:20;14.60;;;10.30;;
15944;SDS011;30172;48.832;8.732;2023-02-28T13:16:06;13.00;;;10.43;;
15944;SDS011;30172;48.832;8.732;2023-02-28T13:18:34;12.87;;;9.83;;
15944;SDS011;30172;48.832;8.732;2023-02-28T13:21:04;13.77;;;10.17;;
15944;SDS011;30172;48.832;8.732;2023-02-28T13:23:56;14.13;;;11.00;;
15944;SDS011;30172;48.832;8.732;2023-02-28T13:29:01;14.97;;;10.17;;
15944;SDS011;30172;48.832;8.732;2023-02-28T13:32:18;12.70;;;10.63;;
15944;SDS011;30172;48.832;8.732;2023-02-28T13:39:49;14.10;;;9.53;;
15944;SDS011;30172;48.832;8.732;2023-02-28T13:47:30;16.43;;;10.63;;
15944;SDS011;30172;48.832;8.732;2023-02-28T13:50:14;15.73;;;10.73;;
15944;SDS011;30172;48.832;8.732;2023-02-28T14:11:30;15.40;;;10.17;;
15944;SDS011;30172;48.832;8.732;2023-02-28T14:13:57;11.27;;;9.63;;
15944;SDS011;30172;48.832;8.732;2023-02-28T14:16:23;14.50;;;9.97;;
15944;SDS011;30172;48.832;8.732;2023-02-28T14:21:31;18.50;;;11.57;;
15944;SDS011;30172;48.832;8.732;2023-02-28T14:37:30;12.33;;;9.33;;
15944;SDS011;30172;48.832;8.732;2023-02-28T14:39:59;15.27;;;9.83;;
15944;SDS011;30172;48.832;8.732;2023-02-28T14:42:29;14.10;;;10.03;;
15944;SDS011;30172;48.832;8.732;2023-02-28T14:44:55;11.63;;;9.67;;
15944;SDS011;30172;48.832;8.732;2023-02-28T14:47:24;12.67;;;9.83;;
15944;SDS011;30172;48.832;8.732;2023-02-28T14:49:53;11.30;;;9.13;;
15944;SDS011;30172;48.832;8.732;2023-02-28T14:52:20;11.27;;;9.00;;
15944;SDS011;30172;48.832;8.732;2023-02-28T14:55:10;11.83;;;10.17;;
15944;SDS011;30172;48.832;8.732;2023-02-28T14:57:49;12.47;;;10.43;;
15944;SDS011;30172;48.832;8.732;2023-02-28T15:00:26;14.13;;;9.80;;
15944;SDS011;30172;48.832;8.732;2023-02-28T15:02:53;13.57;;;10.63;;
15944;SDS011;30172;48.832;8.732;2023-02-28T15:05:22;12.47;;;10.20;;
15944;SDS011;30172;48.832;8.732;2023-02-28T15:08:02;14.80;;;10.63;;
15944;SDS011;30172;48.832;8.732;2023-02-28T15:10:39;14.70;;;10.93;;
15944;SDS011;30172;48.832;8.732;2023-02-28T15:13:07;13.83;;;10.80;;
15944;SDS011;30172;48.832;8.732;2023-02-28T15:15:44;13.60;;;10.73;;
15944;SDS011;30172;48.832;8.732;2023-02-28T15:18:15;13.60;;;11.07;;
15944;SDS011;30172;48.832;8.732;2023-02-28T15:20:46;16.83;;;10.73;;
15944;SDS011;30172;48.832;8.732;2023-02-28T15:23:12;15.63;;;10.90;;
15944;SDS011;30172;48.832;8.732;2023-02-28T15:25:37;15.17;;;10.37;;
15944;SDS011;30172;48.832;8.732;2023-02-28T15:28:04;15.07;;;11.27;;
15944;SDS011;30172;48.832;8.732;2023-02-28T15:30:30;15.17;;;11.03;;
15944;SDS011;30172;48.832;8.732;2023-02-28T15:35:40;14.30;;;9.87;;
15944;SDS011;30172;48.832;8.732;2023-02-28T15:38:22;13.07;;;10.60;;
15944;SDS011;30172;48.832;8.732;2023-02-28T15:40:50;15.27;;;11.57;;
15944;SDS011;30172;48.832;8.732;2023-02-28T15:43:29;14.13;;;11.33;;
15944;SDS011;30172;48.832;8.732;2023-02-28T15:45:57;16.60;;;10.43;;
15944;SDS011;30172;48.832;8.732;2023-02-28T15:48:27;15.03;;;11.67;;
15944;SDS011;30172;48.832;8.732;2023-02-28T15:50:55;13.57;;;10.80;;
15944;SDS011;30172;48.832;8.732;2023-02-28T15:53:38;14.57;;;11.53;;
15944;SDS011;30172;48.832;8.732;2023-02-28T15:56:24;15.60;;;11.53;;
15944;SDS011;30172;48.832;8.732;2023-02-28T15:59:01;13.17;;;10.47;;
15944;SDS011;30172;48.832;8.732;2023-02-28T16:01:32;19.73;;;12.63;;
15944;SDS011;30172;48.832;8.732;2023-02-28T16:04:03;14.33;;;11.70;;
15944;SDS011;30172;48.832;8.732;2023-02-28T16:06:32;17.93;;;12.77;;
15944;SDS011;30172;48.832;8.732;2023-02-28T16:09:01;14.37;;;11.17;;
15944;SDS011;30172;48.832;8.732;2023-02-28T16:11:27;12.73;;;10.37;;
15944;SDS011;30172;48.832;8.732;2023-02-28T16:13:52;14.43;;;11.73;;
15944;SDS011;30172;48.832;8.732;2023-02-28T16:16:19;13.83;;;11.07;;
15944;SDS011;30172;48.832;8.732;2023-02-28T16:18:45;16.77;;;11.77;;
15944;SDS011;30172;48.832;8.732;2023-02-28T16:21:11;16.00;;;12.03;;
15944;SDS011;30172;48.832;8.732;2023-02-28T16:23:36;15.33;;;11.13;;
15944;SDS011;30172;48.832;8.732;2023-02-28T16:26:02;18.30;;;11.80;;
15944;SDS011;30172;48.832;8.732;2023-02-28T16:28:29;17.13;;;11.57;;
15944;SDS011;30172;48.832;8.732;2023-02-28T16:30:57;15.37;;;11.10;;
15944;SDS011;30172;48.832;8.732;2023-02-28T16:33:22;16.00;;;11.97;;
15944;SDS011;30172;48.832;8.732;2023-02-28T16:35:48;18.03;;;12.23;;
15944;SDS011;30172;48.832;8.732;2023-02-28T16:38:14;16.40;;;12.23;;
15944;SDS011;30172;48.832;8.732;2023-02-28T16:40:39;20.77;;;13.57;;
15944;SDS011;30172;48.832;8.732;2023-02-28T16:43:05;21.90;;;15.57;;
15944;SDS011;30172;48.832;8.732;2023-02-28T16:45:33;18.30;;;12.10;;
15944;SDS011;30172;48.832;8.732;2023-02-28T16:47:58;24.60;;;15.67;;
15944;SDS011;30172;48.832;8.732;2023-02-28T16:50:25;26.33;;;15.77;;